sensor_id;sensor_type;location;lat;lon;timestamp;P1;durP1;ratioP1;P2;durP2;ratioP2
36191;SDS011;22233;42.708;23.360;2022-09-09T00:00:14;8.00;;;5.85;;
36191;SDS011;22233;42.708;23.360;2022-09-09T00:02:44;11.05;;;7.10;;
36191;SDS011;22233;42.708;23.360;2022-09-09T00:07:53;8.63;;;6.43;;
36191;SDS011;22233;42.708;23.360;2022-09-09T00:13:11;8.13;;;6.90;;
36191;SDS011;22233;42.708;23.360;2022-09-09T00:15:43;7.82;;;6.45;;
36191;SDS011;22233;42.708;23.360;2022-09-09T00:18:24;7.57;;;6.88;;
36191;SDS011;22233;42.708;23.360;2022-09-09T00:21:11;9.68;;;7.00;;
36191;SDS011;22233;42.708;23.360;2022-09-09T00:23:51;8.55;;;6.70;;
36191;SDS011;22233;42.708;23.360;2022-09-09T00:31:36;9.38;;;7.63;;
36191;SDS011;22233;42.708;23.360;2022-09-09T00:34:09;7.80;;;6.88;;
36191;SDS011;22233;42.708;23.360;2022-09-09T00:36:39;8.73;;;7.13;;
36191;SDS011;22233;42.708;23.360;2022-09-09T00:46:53;8.32;;;7.53;;
36191;SDS011;22233;42.708;23.360;2022-09-09T00:52:17;8.38;;;7.57;;
36191;SDS011;22233;42.708;23.360;2022-09-09T00:55:11;8.00;;;7.30;;
36191;SDS011;22233;42.708;23.360;2022-09-09T00:57:40;9.10;;;8.10;;
36191;SDS011;22233;42.708;23.360;2022-09-09T01:02:54;9.27;;;8.38;;
36191;SDS011;22233;42.708;23.360;2022-09-09T01:11:22;10.23;;;8.20;;
36191;SDS011;22233;42.708;23.360;2022-09-09T01:13:56;9.73;;;8.23;;
36191;SDS011;22233;42.708;23.360;2022-09-09T01:16:26;14.38;;;8.90;;
36191;SDS011;22233;42.708;23.360;2022-09-09T01:18:55;10.10;;;8.57;;
36191;SDS011;22233;42.708;23.360;2022-09-09T01:24:13;9.30;;;8.40;;
36191;SDS011;22233;42.708;23.360;2022-09-09T01:26:44;9.48;;;8.35;;
36191;SDS011;22233;42.708;23.360;2022-09-09T01:29:12;12.30;;;8.98;;
36191;SDS011;22233;42.708;23.360;2022-09-09T01:31:51;9.40;;;8.43;;
36191;SDS011;22233;42.708;23.360;2022-09-09T01:34:27;8.63;;;7.82;;
36191;SDS011;22233;42.708;23.360;2022-09-09T01:37:01;11.27;;;8.50;;
36191;SDS011;22233;42.708;23.360;2022-09-09T01:39:31;10.07;;;8.48;;
36191;SDS011;22233;42.708;23.360;2022-09-09T01:44:24;13.48;;;9.60;;
36191;SDS011;22233;42.708;23.360;2022-09-09T01:46:50;14.63;;;9.05;;
36191;SDS011;22233;42.708;23.360;2022-09-09T01:49:16;15.20;;;10.38;;
36191;SDS011;22233;42.708;23.360;2022-09-09T01:51:43;13.85;;;8.68;;
36191;SDS011;22233;42.708;23.360;2022-09-09T01:54:11;13.68;;;9.63;;
36191;SDS011;22233;42.708;23.360;2022-09-09T02:02:08;13.20;;;9.90;;
36191;SDS011;22233;42.708;23.360;2022-09-09T02:10:20;16.52;;;9.65;;
36191;SDS011;22233;42.708;23.360;2022-09-09T02:12:57;14.52;;;9.88;;
36191;SDS011;22233;42.708;23.360;2022-09-09T02:15:41;15.00;;;10.10;;
36191;SDS011;22233;42.708;23.360;2022-09-09T02:18:10;15.20;;;9.60;;
36191;SDS011;22233;42.708;23.360;2022-09-09T02:20:39;21.23;;;11.07;;
36191;SDS011;22233;42.708;23.360;2022-09-09T02:23:06;18.15;;;9.90;;
36191;SDS011;22233;42.708;23.360;2022-09-09T02:28:00;17.08;;;10.57;;
36191;SDS011;22233;42.708;23.360;2022-09-09T02:30:27;11.52;;;10.25;;
36191;SDS011;22233;42.708;23.360;2022-09-09T02:32:57;15.98;;;11.32;;
36191;SDS011;22233;42.708;23.360;2022-09-09T02:35:27;15.93;;;10.40;;
36191;SDS011;22233;42.708;23.360;2022-09-09T02:37:56;16.90;;;11.30;;
36191;SDS011;22233;42.708;23.360;2022-09-09T02:40:25;13.73;;;10.98;;
36191;SDS011;22233;42.708;23.360;2022-09-09T02:42:51;12.65;;;10.95;;
36191;SDS011;22233;42.708;23.360;2022-09-09T02:45:18;16.27;;;11.40;;
36191;SDS011;22233;42.708;23.360;2022-09-09T02:53:19;18.00;;;11.75;;
36191;SDS011;22233;42.708;23.360;2022-09-09T02:58:50;12.73;;;11.52;;
36191;SDS011;22233;42.708;23.360;2022-09-09T03:01:16;11.05;;;10.00;;
36191;SDS011;22233;42.708;23.360;2022-09-09T03:03:42;13.25;;;11.00;;
36191;SDS011;22233;42.708;23.360;2022-09-09T03:06:09;13.32;;;11.55;;
36191;SDS011;22233;42.708;23.360;2022-09-09T03:11:02;13.35;;;11.95;;
36191;SDS011;22233;42.708;23.360;2022-09-09T03:13:28;13.00;;;11.70;;
36191;SDS011;22233;42.708;23.360;2022-09-09T03:15:53;12.57;;;11.27;;
36191;SDS011;22233;42.708;23.360;2022-09-09T03:18:18;12.65;;;11.35;;
36191;SDS011;22233;42.708;23.360;2022-09-09T03:20:45;15.00;;;11.32;;
36191;SDS011;22233;42.708;23.360;2022-09-09T03:23:13;14.57;;;12.38;;
36191;SDS011;22233;42.708;23.360;2022-09-09T03:25:39;18.83;;;11.35;;
36191;SDS011;22233;42.708;23.360;2022-09-09T03:28:04;13.40;;;10.75;;
36191;SDS011;22233;42.708;23.360;2022-09-09T03:30:30;17.17;;;11.98;;
36191;SDS011;22233;42.708;23.360;2022-09-09T03:32:55;13.98;;;11.85;;
36191;SDS011;22233;42.708;23.360;2022-09-09T03:35:22;15.30;;;12.85;;
36191;SDS011;22233;42.708;23.360;2022-09-09T03:37:47;15.10;;;12.10;;
36191;SDS011;22233;42.708;23.360;2022-09-09T03:40:13;14.80;;;12.70;;
36191;SDS011;22233;42.708;23.360;2022-09-09T03:42:39;13.60;;;12.32;;
36191;SDS011;22233;42.708;23.360;2022-09-09T03:45:06;13.13;;;11.77;;
36191;SDS011;22233;42.708;23.360;2022-09-09T03:47:34;14.88;;;12.45;;
36191;SDS011;22233;42.708;23.360;2022-09-09T03:50:00;17.50;;;11.88;;
36191;SDS011;22233;42.708;23.360;2022-09-09T03:52:25;13.98;;;12.52;;
36191;SDS011;22233;42.708;23.360;2022-09-09T03:54:51;13.52;;;12.18;;
36191;SDS011;22233;42.708;23.360;2022-09-09T03:57:17;17.50;;;12.38;;
36191;SDS011;22233;42.708;23.360;2022-09-09T03:59:43;12.93;;;11.57;;
36191;SDS011;22233;42.708;23.360;2022-09-09T04:02:09;14.40;;;12.13;;
36191;SDS011;22233;42.708;23.360;2022-09-09T04:04:34;16.70;;;12.50;;
36191;SDS011;22233;42.708;23.360;2022-09-09T04:07:00;13.63;;;12.23;;
36191;SDS011;22233;42.708;23.360;2022-09-09T04:09:25;14.52;;;12.02;;
36191;SDS011;22233;42.708;23.360;2022-09-09T04:11:51;13.32;;;11.98;;
36191;SDS011;22233;42.708;23.360;2022-09-09T04:14:18;13.95;;;12.50;;
36191;SDS011;22233;42.708;23.360;2022-09-09T04:16:43;18.13;;;12.40;;
36191;SDS011;22233;42.708;23.360;2022-09-09T04:19:09;17.67;;;12.77;;
36191;SDS011;22233;42.708;23.360;2022-09-09T04:21:38;14.30;;;12.32;;
36191;SDS011;22233;42.708;23.360;2022-09-09T04:24:05;14.10;;;12.32;;
36191;SDS011;22233;42.708;23.360;2022-09-09T04:26:31;17.52;;;12.48;;
36191;SDS011;22233;42.708;23.360;2022-09-09T04:28:57;17.98;;;13.55;;
36191;SDS011;22233;42.708;23.360;2022-09-09T04:31:23;17.15;;;12.52;;
36191;SDS011;22233;42.708;23.360;2022-09-09T04:33:49;13.95;;;12.57;;
36191;SDS011;22233;42.708;23.360;2022-09-09T04:36:15;23.02;;;16.38;;
36191;SDS011;22233;42.708;23.360;2022-09-09T04:38:41;17.42;;;12.77;;
36191;SDS011;22233;42.708;23.360;2022-09-09T04:41:07;19.73;;;13.50;;
36191;SDS011;22233;42.708;23.360;2022-09-09T04:43:33;20.13;;;12.85;;
36191;SDS011;22233;42.708;23.360;2022-09-09T04:45:59;20.17;;;14.45;;
36191;SDS011;22233;42.708;23.360;2022-09-09T04:48:25;18.27;;;13.35;;
36191;SDS011;22233;42.708;23.360;2022-09-09T04:51:03;19.80;;;13.45;;
36191;SDS011;22233;42.708;23.360;2022-09-09T04:53:31;18.45;;;13.00;;
36191;SDS011;22233;42.708;23.360;2022-09-09T04:56:06;15.80;;;12.93;;
36191;SDS011;22233;42.708;23.360;2022-09-09T04:58:35;17.13;;;14.48;;
36191;SDS011;22233;42.708;23.360;2022-09-09T05:01:18;14.30;;;12.32;;
36191;SDS011;22233;42.708;23.360;2022-09-09T05:03:46;23.73;;;14.30;;
36191;SDS011;22233;42.708;23.360;2022-09-09T05:06:13;17.75;;;14.50;;
36191;SDS011;22233;42.708;23.360;2022-09-09T05:08:41;20.75;;;14.70;;
36191;SDS011;22233;42.708;23.360;2022-09-09T05:13:40;18.80;;;13.05;;
36191;SDS011;22233;42.708;23.360;2022-09-09T05:16:05;13.98;;;12.40;;
36191;SDS011;22233;42.708;23.360;2022-09-09T05:18:31;22.75;;;12.05;;
36191;SDS011;22233;42.708;23.360;2022-09-09T05:20:59;24.77;;;13.50;;
36191;SDS011;22233;42.708;23.360;2022-09-09T05:23:26;15.18;;;11.80;;
36191;SDS011;22233;42.708;23.360;2022-09-09T05:25:55;17.42;;;12.00;;
36191;SDS011;22233;42.708;23.360;2022-09-09T05:28:21;18.27;;;12.02;;
36191;SDS011;22233;42.708;23.360;2022-09-09T05:30:54;20.73;;;12.55;;
36191;SDS011;22233;42.708;23.360;2022-09-09T05:33:21;13.65;;;11.63;;
36191;SDS011;22233;42.708;23.360;2022-09-09T05:35:46;17.00;;;11.68;;
36191;SDS011;22233;42.708;23.360;2022-09-09T05:38:12;18.58;;;12.15;;
36191;SDS011;22233;42.708;23.360;2022-09-09T05:40:37;18.38;;;10.57;;
36191;SDS011;22233;42.708;23.360;2022-09-09T05:43:02;12.85;;;10.27;;
36191;SDS011;22233;42.708;23.360;2022-09-09T05:45:28;17.30;;;10.82;;
36191;SDS011;22233;42.708;23.360;2022-09-09T05:47:53;17.55;;;10.98;;
36191;SDS011;22233;42.708;23.360;2022-09-09T05:50:19;15.73;;;11.15;;
36191;SDS011;22233;42.708;23.360;2022-09-09T05:52:44;17.35;;;11.60;;
36191;SDS011;22233;42.708;23.360;2022-09-09T05:55:10;15.20;;;11.00;;
36191;SDS011;22233;42.708;23.360;2022-09-09T05:57:35;18.98;;;11.63;;
36191;SDS011;22233;42.708;23.360;2022-09-09T06:00:00;21.85;;;11.43;;
36191;SDS011;22233;42.708;23.360;2022-09-09T06:02:26;11.43;;;8.55;;
36191;SDS011;22233;42.708;23.360;2022-09-09T06:04:52;11.98;;;9.35;;
36191;SDS011;22233;42.708;23.360;2022-09-09T06:07:17;13.98;;;10.00;;
36191;SDS011;22233;42.708;23.360;2022-09-09T06:09:44;12.00;;;8.60;;
36191;SDS011;22233;42.708;23.360;2022-09-09T06:12:09;11.57;;;8.43;;
36191;SDS011;22233;42.708;23.360;2022-09-09T06:14:35;11.88;;;7.88;;
36191;SDS011;22233;42.708;23.360;2022-09-09T06:17:00;11.35;;;7.00;;
36191;SDS011;22233;42.708;23.360;2022-09-09T06:19:27;13.18;;;7.80;;
36191;SDS011;22233;42.708;23.360;2022-09-09T06:21:52;8.43;;;6.43;;
36191;SDS011;22233;42.708;23.360;2022-09-09T06:24:18;10.48;;;6.80;;
36191;SDS011;22233;42.708;23.360;2022-09-09T06:26:44;11.57;;;7.43;;
36191;SDS011;22233;42.708;23.360;2022-09-09T06:29:10;9.55;;;6.55;;
36191;SDS011;22233;42.708;23.360;2022-09-09T06:31:37;15.75;;;7.55;;
36191;SDS011;22233;42.708;23.360;2022-09-09T06:34:04;9.52;;;6.68;;
36191;SDS011;22233;42.708;23.360;2022-09-09T06:36:32;9.38;;;5.43;;
36191;SDS011;22233;42.708;23.360;2022-09-09T06:39:02;8.85;;;6.80;;
36191;SDS011;22233;42.708;23.360;2022-09-09T06:41:29;7.38;;;5.57;;
36191;SDS011;22233;42.708;23.360;2022-09-09T06:43:56;10.60;;;6.00;;
36191;SDS011;22233;42.708;23.360;2022-09-09T06:46:22;10.82;;;5.40;;
36191;SDS011;22233;42.708;23.360;2022-09-09T06:48:55;8.15;;;6.03;;
36191;SDS011;22233;42.708;23.360;2022-09-09T06:51:23;10.32;;;6.38;;
36191;SDS011;22233;42.708;23.360;2022-09-09T06:53:51;7.40;;;6.03;;
36191;SDS011;22233;42.708;23.360;2022-09-09T06:56:20;12.90;;;5.60;;
36191;SDS011;22233;42.708;23.360;2022-09-09T06:58:53;7.28;;;4.93;;
36191;SDS011;22233;42.708;23.360;2022-09-09T07:01:23;10.03;;;5.33;;
36191;SDS011;22233;42.708;23.360;2022-09-09T07:03:51;8.77;;;5.82;;
36191;SDS011;22233;42.708;23.360;2022-09-09T07:06:20;10.20;;;7.45;;
36191;SDS011;22233;42.708;23.360;2022-09-09T07:08:52;7.35;;;5.45;;
36191;SDS011;22233;42.708;23.360;2022-09-09T07:11:19;9.13;;;5.13;;
36191;SDS011;22233;42.708;23.360;2022-09-09T07:16:13;8.37;;;4.77;;
36191;SDS011;22233;42.708;23.360;2022-09-09T07:18:40;5.07;;;4.40;;
36191;SDS011;22233;42.708;23.360;2022-09-09T07:21:06;5.53;;;4.47;;
36191;SDS011;22233;42.708;23.360;2022-09-09T07:23:34;8.20;;;4.97;;
36191;SDS011;22233;42.708;23.360;2022-09-09T07:26:01;8.60;;;4.50;;
36191;SDS011;22233;42.708;23.360;2022-09-09T07:28:28;6.25;;;4.78;;
36191;SDS011;22233;42.708;23.360;2022-09-09T07:30:56;8.93;;;5.75;;
36191;SDS011;22233;42.708;23.360;2022-09-09T07:35:49;7.93;;;4.90;;
36191;SDS011;22233;42.708;23.360;2022-09-09T07:38:15;6.20;;;4.32;;
36191;SDS011;22233;42.708;23.360;2022-09-09T07:40:41;6.53;;;4.57;;
36191;SDS011;22233;42.708;23.360;2022-09-09T07:43:06;6.25;;;4.90;;
36191;SDS011;22233;42.708;23.360;2022-09-09T07:45:33;7.60;;;5.40;;
36191;SDS011;22233;42.708;23.360;2022-09-09T07:47:59;5.07;;;4.57;;
36191;SDS011;22233;42.708;23.360;2022-09-09T07:50:25;6.47;;;4.63;;
36191;SDS011;22233;42.708;23.360;2022-09-09T07:52:51;5.38;;;4.07;;
36191;SDS011;22233;42.708;23.360;2022-09-09T07:55:19;11.40;;;5.78;;
36191;SDS011;22233;42.708;23.360;2022-09-09T07:57:45;6.28;;;4.75;;
36191;SDS011;22233;42.708;23.360;2022-09-09T08:00:10;5.10;;;4.63;;
36191;SDS011;22233;42.708;23.360;2022-09-09T08:02:36;5.32;;;4.45;;
36191;SDS011;22233;42.708;23.360;2022-09-09T08:05:02;5.20;;;4.63;;
36191;SDS011;22233;42.708;23.360;2022-09-09T08:07:27;8.77;;;4.38;;
36191;SDS011;22233;42.708;23.360;2022-09-09T08:09:53;8.60;;;4.70;;
36191;SDS011;22233;42.708;23.360;2022-09-09T08:12:20;5.70;;;4.55;;
36191;SDS011;22233;42.708;23.360;2022-09-09T08:14:46;6.68;;;4.65;;
36191;SDS011;22233;42.708;23.360;2022-09-09T08:17:13;5.68;;;4.50;;
36191;SDS011;22233;42.708;23.360;2022-09-09T08:19:39;6.72;;;4.55;;
36191;SDS011;22233;42.708;23.360;2022-09-09T08:22:04;6.70;;;4.32;;
36191;SDS011;22233;42.708;23.360;2022-09-09T08:24:29;10.55;;;5.20;;
36191;SDS011;22233;42.708;23.360;2022-09-09T08:26:55;7.60;;;4.70;;
36191;SDS011;22233;42.708;23.360;2022-09-09T08:29:21;8.43;;;4.87;;
36191;SDS011;22233;42.708;23.360;2022-09-09T08:31:51;7.25;;;5.13;;
36191;SDS011;22233;42.708;23.360;2022-09-09T08:34:19;7.18;;;4.00;;
36191;SDS011;22233;42.708;23.360;2022-09-09T08:36:45;6.35;;;4.57;;
36191;SDS011;22233;42.708;23.360;2022-09-09T08:52:49;6.53;;;4.47;;
36191;SDS011;22233;42.708;23.360;2022-09-09T08:55:52;10.15;;;4.65;;
36191;SDS011;22233;42.708;23.360;2022-09-09T08:58:33;6.32;;;4.50;;
36191;SDS011;22233;42.708;23.360;2022-09-09T09:04:26;8.60;;;4.70;;
36191;SDS011;22233;42.708;23.360;2022-09-09T09:12:35;11.52;;;4.97;;
36191;SDS011;22233;42.708;23.360;2022-09-09T09:15:23;10.57;;;5.20;;
36191;SDS011;22233;42.708;23.360;2022-09-09T09:17:51;6.57;;;5.53;;
36191;SDS011;22233;42.708;23.360;2022-09-09T09:20:18;9.07;;;4.90;;
36191;SDS011;22233;42.708;23.360;2022-09-09T09:22:55;9.35;;;5.03;;
36191;SDS011;22233;42.708;23.360;2022-09-09T09:25:29;6.75;;;4.88;;
36191;SDS011;22233;42.708;23.360;2022-09-09T09:30:36;10.15;;;5.07;;
36191;SDS011;22233;42.708;23.360;2022-09-09T09:35:31;9.20;;;5.13;;
36191;SDS011;22233;42.708;23.360;2022-09-09T09:37:57;5.90;;;4.55;;
36191;SDS011;22233;42.708;23.360;2022-09-09T09:40:22;11.23;;;7.20;;
36191;SDS011;22233;42.708;23.360;2022-09-09T09:42:49;11.57;;;5.72;;
36191;SDS011;22233;42.708;23.360;2022-09-09T09:45:21;8.27;;;4.63;;
36191;SDS011;22233;42.708;23.360;2022-09-09T09:48:03;10.20;;;5.38;;
36191;SDS011;22233;42.708;23.360;2022-09-09T09:50:30;10.32;;;5.30;;
36191;SDS011;22233;42.708;23.360;2022-09-09T09:52:57;9.23;;;4.88;;
36191;SDS011;22233;42.708;23.360;2022-09-09T09:55:29;8.18;;;5.07;;
36191;SDS011;22233;42.708;23.360;2022-09-09T09:58:04;8.00;;;4.90;;
36191;SDS011;22233;42.708;23.360;2022-09-09T10:00:31;7.13;;;5.80;;
36191;SDS011;22233;42.708;23.360;2022-09-09T10:02:58;9.20;;;5.32;;
36191;SDS011;22233;42.708;23.360;2022-09-09T10:08:01;9.70;;;5.57;;
36191;SDS011;22233;42.708;23.360;2022-09-09T10:10:52;8.45;;;5.15;;
36191;SDS011;22233;42.708;23.360;2022-09-09T10:13:50;7.82;;;4.95;;
36191;SDS011;22233;42.708;23.360;2022-09-09T10:18:58;9.57;;;4.95;;
36191;SDS011;22233;42.708;23.360;2022-09-09T10:37:11;12.18;;;6.57;;
36191;SDS011;22233;42.708;23.360;2022-09-09T10:39:53;13.68;;;6.80;;
36191;SDS011;22233;42.708;23.360;2022-09-09T10:42:30;8.50;;;6.18;;
36191;SDS011;22233;42.708;23.360;2022-09-09T10:48:02;11.38;;;5.85;;
36191;SDS011;22233;42.708;23.360;2022-09-09T10:56:40;12.32;;;6.18;;
36191;SDS011;22233;42.708;23.360;2022-09-09T10:59:15;12.70;;;5.85;;
36191;SDS011;22233;42.708;23.360;2022-09-09T11:01:48;8.93;;;6.25;;
36191;SDS011;22233;42.708;23.360;2022-09-09T11:04:25;13.45;;;6.90;;
36191;SDS011;22233;42.708;23.360;2022-09-09T11:06:57;12.43;;;6.88;;
36191;SDS011;22233;42.708;23.360;2022-09-09T11:09:31;12.60;;;6.38;;
36191;SDS011;22233;42.708;23.360;2022-09-09T11:12:02;10.90;;;7.25;;
36191;SDS011;22233;42.708;23.360;2022-09-09T11:17:26;12.73;;;7.57;;
36191;SDS011;22233;42.708;23.360;2022-09-09T11:20:11;11.25;;;6.80;;
36191;SDS011;22233;42.708;23.360;2022-09-09T11:22:39;16.63;;;8.40;;
36191;SDS011;22233;42.708;23.360;2022-09-09T11:25:20;17.23;;;7.38;;
36191;SDS011;22233;42.708;23.360;2022-09-09T11:30:20;13.35;;;7.20;;
36191;SDS011;22233;42.708;23.360;2022-09-09T11:41:02;12.85;;;7.18;;
36191;SDS011;22233;42.708;23.360;2022-09-09T11:43:42;10.45;;;6.50;;
36191;SDS011;22233;42.708;23.360;2022-09-09T11:46:11;9.80;;;6.95;;
36191;SDS011;22233;42.708;23.360;2022-09-09T11:51:10;13.27;;;7.30;;
36191;SDS011;22233;42.708;23.360;2022-09-09T11:53:48;10.60;;;7.97;;
36191;SDS011;22233;42.708;23.360;2022-09-09T11:56:50;13.55;;;7.28;;
36191;SDS011;22233;42.708;23.360;2022-09-09T12:01:48;11.85;;;7.55;;
36191;SDS011;22233;42.708;23.360;2022-09-09T12:09:27;13.52;;;6.57;;
36191;SDS011;22233;42.708;23.360;2022-09-09T12:19:47;12.70;;;7.45;;
36191;SDS011;22233;42.708;23.360;2022-09-09T12:22:20;10.52;;;7.97;;
36191;SDS011;22233;42.708;23.360;2022-09-09T12:33:16;8.18;;;6.70;;
36191;SDS011;22233;42.708;23.360;2022-09-09T12:35:44;10.75;;;7.57;;
36191;SDS011;22233;42.708;23.360;2022-09-09T12:38:17;11.93;;;7.30;;
36191;SDS011;22233;42.708;23.360;2022-09-09T12:41:01;13.00;;;8.65;;
36191;SDS011;22233;42.708;23.360;2022-09-09T12:43:27;10.10;;;7.30;;
36191;SDS011;22233;42.708;23.360;2022-09-09T12:45:55;15.02;;;7.10;;
36191;SDS011;22233;42.708;23.360;2022-09-09T12:48:36;11.82;;;7.53;;
36191;SDS011;22233;42.708;23.360;2022-09-09T12:51:06;11.77;;;8.02;;
36191;SDS011;22233;42.708;23.360;2022-09-09T12:53:42;13.25;;;7.97;;
36191;SDS011;22233;42.708;23.360;2022-09-09T12:56:17;11.43;;;7.05;;
36191;SDS011;22233;42.708;23.360;2022-09-09T13:01:34;10.05;;;6.80;;
36191;SDS011;22233;42.708;23.360;2022-09-09T13:03:59;14.95;;;7.60;;
36191;SDS011;22233;42.708;23.360;2022-09-09T13:06:29;12.75;;;7.32;;
36191;SDS011;22233;42.708;23.360;2022-09-09T13:08:57;10.15;;;7.03;;
36191;SDS011;22233;42.708;23.360;2022-09-09T13:11:28;14.20;;;7.35;;
36191;SDS011;22233;42.708;23.360;2022-09-09T13:14:04;11.02;;;8.32;;
36191;SDS011;22233;42.708;23.360;2022-09-09T13:16:32;9.53;;;7.97;;
36191;SDS011;22233;42.708;23.360;2022-09-09T13:19:00;8.40;;;6.80;;
36191;SDS011;22233;42.708;23.360;2022-09-09T13:21:34;11.00;;;7.45;;
36191;SDS011;22233;42.708;23.360;2022-09-09T13:24:02;9.70;;;7.10;;
36191;SDS011;22233;42.708;23.360;2022-09-09T13:26:32;14.77;;;7.50;;
36191;SDS011;22233;42.708;23.360;2022-09-09T13:29:15;12.18;;;6.97;;
36191;SDS011;22233;42.708;23.360;2022-09-09T13:31:43;10.65;;;8.02;;
36191;SDS011;22233;42.708;23.360;2022-09-09T13:36:38;12.95;;;8.43;;
36191;SDS011;22233;42.708;23.360;2022-09-09T13:39:13;14.27;;;7.82;;
36191;SDS011;22233;42.708;23.360;2022-09-09T13:41:44;10.88;;;7.15;;
36191;SDS011;22233;42.708;23.360;2022-09-09T13:44:17;12.57;;;7.35;;
36191;SDS011;22233;42.708;23.360;2022-09-09T13:46:59;13.10;;;7.20;;
36191;SDS011;22233;42.708;23.360;2022-09-09T13:49:28;12.13;;;8.07;;
36191;SDS011;22233;42.708;23.360;2022-09-09T13:52:04;13.27;;;7.80;;
36191;SDS011;22233;42.708;23.360;2022-09-09T13:54:33;11.73;;;7.90;;
36191;SDS011;22233;42.708;23.360;2022-09-09T13:56:59;12.88;;;8.32;;
36191;SDS011;22233;42.708;23.360;2022-09-09T13:59:26;10.93;;;7.47;;
36191;SDS011;22233;42.708;23.360;2022-09-09T14:01:52;10.43;;;8.18;;
36191;SDS011;22233;42.708;23.360;2022-09-09T14:04:18;13.32;;;8.77;;
36191;SDS011;22233;42.708;23.360;2022-09-09T14:06:47;13.15;;;7.78;;
36191;SDS011;22233;42.708;23.360;2022-09-09T14:09:13;10.25;;;7.40;;
36191;SDS011;22233;42.708;23.360;2022-09-09T14:11:41;14.07;;;7.00;;
36191;SDS011;22233;42.708;23.360;2022-09-09T14:14:06;13.57;;;7.97;;
36191;SDS011;22233;42.708;23.360;2022-09-09T14:16:32;9.15;;;6.85;;
36191;SDS011;22233;42.708;23.360;2022-09-09T14:18:58;15.07;;;7.13;;
36191;SDS011;22233;42.708;23.360;2022-09-09T14:21:24;12.93;;;7.30;;
36191;SDS011;22233;42.708;23.360;2022-09-09T14:23:51;11.15;;;6.57;;
36191;SDS011;22233;42.708;23.360;2022-09-09T14:26:18;14.25;;;7.25;;
36191;SDS011;22233;42.708;23.360;2022-09-09T14:28:45;10.50;;;7.43;;
36191;SDS011;22233;42.708;23.360;2022-09-09T14:31:12;9.30;;;6.13;;
36191;SDS011;22233;42.708;23.360;2022-09-09T14:33:38;11.55;;;6.05;;
36191;SDS011;22233;42.708;23.360;2022-09-09T14:36:04;14.27;;;7.53;;
36191;SDS011;22233;42.708;23.360;2022-09-09T14:38:31;11.88;;;6.88;;
36191;SDS011;22233;42.708;23.360;2022-09-09T14:40:58;9.57;;;6.45;;
36191;SDS011;22233;42.708;23.360;2022-09-09T14:43:24;9.85;;;6.05;;
36191;SDS011;22233;42.708;23.360;2022-09-09T14:45:51;10.40;;;6.18;;
36191;SDS011;22233;42.708;23.360;2022-09-09T14:48:17;11.18;;;6.80;;
36191;SDS011;22233;42.708;23.360;2022-09-09T14:50:43;11.70;;;6.38;;
36191;SDS011;22233;42.708;23.360;2022-09-09T14:53:08;9.23;;;6.40;;
36191;SDS011;22233;42.708;23.360;2022-09-09T14:55:35;12.27;;;6.33;;
36191;SDS011;22233;42.708;23.360;2022-09-09T14:58:01;12.60;;;6.80;;
36191;SDS011;22233;42.708;23.360;2022-09-09T15:00:26;9.32;;;6.15;;
36191;SDS011;22233;42.708;23.360;2022-09-09T15:02:52;14.43;;;6.25;;
36191;SDS011;22233;42.708;23.360;2022-09-09T15:05:18;10.40;;;6.10;;
36191;SDS011;22233;42.708;23.360;2022-09-09T15:07:44;9.93;;;6.70;;
36191;SDS011;22233;42.708;23.360;2022-09-09T15:10:09;11.27;;;5.68;;
36191;SDS011;22233;42.708;23.360;2022-09-09T15:12:36;10.20;;;5.93;;
36191;SDS011;22233;42.708;23.360;2022-09-09T15:15:01;13.40;;;6.90;;
36191;SDS011;22233;42.708;23.360;2022-09-09T15:17:31;11.60;;;6.55;;
36191;SDS011;22233;42.708;23.360;2022-09-09T15:19:56;13.93;;;7.32;;
36191;SDS011;22233;42.708;23.360;2022-09-09T15:22:22;12.05;;;6.68;;
36191;SDS011;22233;42.708;23.360;2022-09-09T15:24:49;7.78;;;6.25;;
36191;SDS011;22233;42.708;23.360;2022-09-09T15:27:15;12.45;;;6.18;;
36191;SDS011;22233;42.708;23.360;2022-09-09T15:29:40;9.63;;;6.72;;
36191;SDS011;22233;42.708;23.360;2022-09-09T15:32:06;14.30;;;8.60;;
36191;SDS011;22233;42.708;23.360;2022-09-09T15:34:32;11.50;;;6.88;;
36191;SDS011;22233;42.708;23.360;2022-09-09T15:36:57;9.68;;;6.13;;
36191;SDS011;22233;42.708;23.360;2022-09-09T15:39:25;10.65;;;5.93;;
36191;SDS011;22233;42.708;23.360;2022-09-09T15:41:50;10.30;;;6.13;;
36191;SDS011;22233;42.708;23.360;2022-09-09T15:44:16;12.38;;;6.60;;
36191;SDS011;22233;42.708;23.360;2022-09-09T15:49:10;13.48;;;6.07;;
36191;SDS011;22233;42.708;23.360;2022-09-09T15:51:40;10.52;;;5.97;;
36191;SDS011;22233;42.708;23.360;2022-09-09T15:54:16;9.77;;;6.53;;
36191;SDS011;22233;42.708;23.360;2022-09-09T15:56:44;12.32;;;6.30;;
36191;SDS011;22233;42.708;23.360;2022-09-09T15:59:10;6.97;;;6.20;;
36191;SDS011;22233;42.708;23.360;2022-09-09T16:01:36;13.13;;;6.40;;
36191;SDS011;22233;42.708;23.360;2022-09-09T16:04:04;13.65;;;7.00;;
36191;SDS011;22233;42.708;23.360;2022-09-09T16:06:30;13.52;;;8.38;;
36191;SDS011;22233;42.708;23.360;2022-09-09T16:08:56;11.85;;;7.75;;
36191;SDS011;22233;42.708;23.360;2022-09-09T16:11:24;13.07;;;7.53;;
36191;SDS011;22233;42.708;23.360;2022-09-09T16:13:52;13.52;;;7.10;;
36191;SDS011;22233;42.708;23.360;2022-09-09T16:16:19;8.10;;;6.07;;
36191;SDS011;22233;42.708;23.360;2022-09-09T16:18:48;9.43;;;6.25;;
36191;SDS011;22233;42.708;23.360;2022-09-09T16:21:19;16.40;;;6.93;;
36191;SDS011;22233;42.708;23.360;2022-09-09T16:23:47;13.27;;;7.53;;
36191;SDS011;22233;42.708;23.360;2022-09-09T16:26:14;12.07;;;8.25;;
36191;SDS011;22233;42.708;23.360;2022-09-09T16:31:07;13.53;;;10.03;;
36191;SDS011;22233;42.708;23.360;2022-09-09T16:33:35;17.25;;;9.13;;
36191;SDS011;22233;42.708;23.360;2022-09-09T16:36:14;20.97;;;9.17;;
36191;SDS011;22233;42.708;23.360;2022-09-09T16:38:41;17.17;;;8.93;;
36191;SDS011;22233;42.708;23.360;2022-09-09T16:41:10;20.10;;;9.93;;
36191;SDS011;22233;42.708;23.360;2022-09-09T16:43:37;16.10;;;9.10;;
36191;SDS011;22233;42.708;23.360;2022-09-09T16:46:03;15.90;;;9.00;;
36191;SDS011;22233;42.708;23.360;2022-09-09T16:48:38;14.23;;;7.95;;
36191;SDS011;22233;42.708;23.360;2022-09-09T16:51:04;13.85;;;7.10;;
36191;SDS011;22233;42.708;23.360;2022-09-09T16:55:56;19.23;;;11.87;;
36191;SDS011;22233;42.708;23.360;2022-09-09T16:58:22;19.63;;;11.13;;
36191;SDS011;22233;42.708;23.360;2022-09-09T17:00:47;23.20;;;11.45;;
36191;SDS011;22233;42.708;23.360;2022-09-09T17:03:13;21.35;;;13.57;;
36191;SDS011;22233;42.708;23.360;2022-09-09T17:05:40;23.05;;;12.15;;
36191;SDS011;22233;42.708;23.360;2022-09-09T17:08:06;14.82;;;10.02;;
36191;SDS011;22233;42.708;23.360;2022-09-09T17:10:32;21.27;;;10.68;;
36191;SDS011;22233;42.708;23.360;2022-09-09T17:12:57;17.65;;;11.68;;
36191;SDS011;22233;42.708;23.360;2022-09-09T17:15:22;19.60;;;11.57;;
36191;SDS011;22233;42.708;23.360;2022-09-09T17:17:48;16.02;;;9.05;;
36191;SDS011;22233;42.708;23.360;2022-09-09T17:20:17;16.38;;;9.00;;
36191;SDS011;22233;42.708;23.360;2022-09-09T17:22:43;17.58;;;8.90;;
36191;SDS011;22233;42.708;23.360;2022-09-09T17:25:08;20.10;;;9.75;;
36191;SDS011;22233;42.708;23.360;2022-09-09T17:27:34;13.93;;;8.73;;